createdAt,value
2018-05-12T00:01:20.642Z,52.44
2018-05-12T00:03:55.926Z,52.37
2018-05-12T00:06:30.514Z,51.82
2018-05-12T00:09:05.899Z,52.23
2018-05-12T00:11:41.488Z,51.77
2018-05-12T00:14:16.894Z,51.65
2018-05-12T00:16:51.354Z,51.25
2018-05-12T00:19:25.965Z,51.68
2018-05-12T00:22:00.568Z,51.58
2018-05-12T00:24:35.042Z,52.16
2018-05-12T00:27:10.278Z,51.77
2018-05-12T00:29:45.659Z,52.37
2018-05-12T00:32:20.144Z,51.95
2018-05-12T00:34:55.530Z,52.83
2018-05-12T00:37:30.116Z,53.07
2018-05-12T00:40:04.597Z,53.01
2018-05-12T00:42:39.018Z,52.35
2018-05-12T00:45:14.374Z,52.30
2018-05-12T00:47:48.922Z,52.70
2018-05-12T00:50:24.197Z,52.56
2018-05-12T00:52:58.772Z,52.73
2018-05-12T00:55:33.382Z,52.87
2018-05-12T00:58:08.004Z,53.28
2018-05-12T01:00:42.606Z,53.52
2018-05-12T01:03:17.240Z,53.43
2018-05-12T01:05:51.804Z,53.62
2018-05-12T01:08:27.119Z,54.29
2018-05-12T01:11:02.250Z,54.01
2018-05-12T01:13:37.768Z,54.47
2018-05-12T01:16:12.325Z,54.59
2018-05-12T01:18:47.568Z,54.88
2018-05-12T01:21:22.218Z,54.78
2018-05-12T01:23:57.451Z,54.80
2018-05-12T01:26:32.146Z,54.40
2018-05-12T01:29:07.369Z,54.89
2018-05-12T01:31:41.875Z,54.99
2018-05-12T01:34:16.417Z,55.33
2018-05-12T01:36:50.869Z,54.80
2018-05-12T01:39:25.334Z,54.76
2018-05-12T01:41:59.879Z,54.69
2018-05-12T01:44:34.553Z,54.70
2018-05-12T01:47:09.094Z,55.05
2018-05-12T01:49:43.690Z,54.96
2018-05-12T01:52:18.136Z,55.32
2018-05-12T01:54:52.757Z,55.66
2018-05-12T01:57:28.093Z,55.46
2018-05-12T02:00:02.685Z,55.48
2018-05-12T02:02:37.339Z,55.59
2018-05-12T02:05:11.940Z,55.55
2018-05-12T02:07:46.536Z,55.65
2018-05-12T02:10:21.082Z,55.73
2018-05-12T02:12:55.650Z,55.84
2018-05-12T02:15:30.274Z,56.04
2018-05-12T02:18:05.029Z,56.30
2018-05-12T02:20:40.222Z,56.74
2018-05-12T02:26:20.085Z,57.11
2018-05-12T02:28:54.683Z,57.11
2018-05-12T02:31:29.257Z,57.33
2018-05-12T02:34:03.876Z,57.54
2018-05-12T02:36:38.339Z,57.66
2018-05-12T02:39:13.089Z,57.97
2018-05-12T02:41:47.570Z,57.72
2018-05-12T02:44:22.197Z,57.57
2018-05-12T02:46:57.561Z,58.27
2018-05-12T02:49:32.169Z,58.34
2018-05-12T02:52:07.336Z,59.01
2018-05-12T02:54:42.640Z,59.84
2018-05-12T02:57:17.257Z,59.98
2018-05-12T02:59:51.754Z,59.51
2018-05-12T03:02:27.031Z,59.65
2018-05-12T03:05:01.590Z,59.79
2018-05-12T03:07:36.110Z,60.08
2018-05-12T03:10:11.418Z,60.32
2018-05-12T03:12:46.082Z,60.22
2018-05-12T03:15:20.721Z,60.25
2018-05-12T03:17:55.151Z,60.48
2018-05-12T03:20:29.740Z,60.12
2018-05-12T03:23:04.471Z,60.07
2018-05-12T03:25:39.065Z,60.08
2018-05-12T03:28:13.752Z,60.33
2018-05-12T03:30:48.356Z,60.39
2018-05-12T03:33:23.025Z,60.62
2018-05-12T03:35:58.252Z,60.77
2018-05-12T03:38:32.839Z,61.13
2018-05-12T03:41:07.398Z,61.00
2018-05-12T03:43:41.995Z,61.28
2018-05-12T03:46:16.523Z,60.83
2018-05-12T03:48:51.019Z,60.87
2018-05-12T03:51:25.601Z,60.40
2018-05-12T03:54:00.856Z,60.69
2018-05-12T03:56:35.465Z,61.03
2018-05-12T03:59:09.828Z,61.01
2018-05-12T04:01:44.422Z,61.33
2018-05-12T04:04:36.821Z,61.63
2018-05-12T04:10:43.514Z,60.74
2018-05-12T04:13:18.191Z,60.74
2018-05-12T04:15:53.393Z,61.53
2018-05-12T04:18:28.807Z,61.23
2018-05-12T04:21:03.452Z,61.02
2018-05-12T04:23:37.997Z,60.69
2018-05-12T04:26:13.260Z,60.77
2018-05-12T04:28:47.893Z,60.79
2018-05-12T04:31:23.356Z,60.61
2018-05-12T04:33:57.944Z,60.77
2018-05-12T04:36:32.523Z,60.64
2018-05-12T04:39:07.158Z,60.60
2018-05-12T04:41:41.796Z,60.14
2018-05-12T04:44:16.245Z,60.03
2018-05-12T04:46:51.537Z,60.03
2018-05-12T04:49:26.118Z,59.94
2018-05-12T04:52:00.693Z,59.69
2018-05-12T04:54:35.359Z,59.55
2018-05-12T04:57:10.701Z,59.51
2018-05-12T04:59:45.281Z,59.72
2018-05-12T05:02:19.800Z,60.17
2018-05-12T05:04:54.330Z,59.46
2018-05-12T05:07:28.896Z,59.52
2018-05-12T05:10:03.551Z,59.55
2018-05-12T05:12:38.085Z,59.67
2018-05-12T05:15:12.516Z,59.67
2018-05-12T05:17:47.103Z,59.68
2018-05-12T05:20:21.654Z,59.59
2018-05-12T05:22:56.275Z,59.78
2018-05-12T05:25:30.887Z,58.91
2018-05-12T05:28:05.281Z,58.99
2018-05-12T05:30:40.756Z,58.28
2018-05-12T05:33:15.379Z,58.05
2018-05-12T05:35:49.857Z,58.08
2018-05-12T05:38:24.538Z,57.66
2018-05-12T05:40:59.124Z,57.51
2018-05-12T05:43:33.626Z,57.20
2018-05-12T05:46:08.798Z,57.20
2018-05-12T05:48:43.406Z,56.91
2018-05-12T05:51:18.796Z,56.21
2018-05-12T05:53:53.447Z,55.70
2018-05-12T05:56:27.895Z,55.81
2018-05-12T05:59:02.522Z,55.73
2018-05-12T06:01:37.796Z,55.40
2018-05-12T06:04:12.391Z,55.29
2018-05-12T06:06:46.936Z,55.51
2018-05-12T06:09:21.421Z,55.11
2018-05-12T06:11:56.012Z,55.07
2018-05-12T06:14:30.603Z,54.50
2018-05-12T06:17:05.177Z,54.32
2018-05-12T06:19:39.770Z,53.79
2018-05-12T06:22:14.248Z,53.91
2018-05-12T06:24:49.586Z,53.75
2018-05-12T06:27:24.179Z,52.26
2018-05-12T06:29:58.681Z,52.67
2018-05-12T06:32:33.340Z,51.92
2018-05-12T06:35:07.899Z,51.81
2018-05-12T06:37:42.402Z,51.75
2018-05-12T06:40:17.061Z,52.16
2018-05-12T06:42:51.671Z,52.04
2018-05-12T06:45:27.017Z,51.94
2018-05-12T06:48:01.417Z,50.85
2018-05-12T06:50:36.774Z,51.61
2018-05-12T06:53:11.299Z,51.09
2018-05-12T06:55:45.924Z,50.86
2018-05-12T06:58:20.348Z,50.44
2018-05-12T07:00:55.085Z,49.74
2018-05-12T07:03:29.664Z,48.88
2018-05-12T07:06:04.199Z,48.42
2018-05-12T07:08:38.647Z,48.19
2018-05-12T07:11:13.248Z,47.69
2018-05-12T07:13:47.669Z,47.08
2018-05-12T07:16:22.218Z,46.88
2018-05-12T07:18:57.454Z,45.72
2018-05-12T07:21:32.055Z,45.51
2018-05-12T07:24:06.812Z,45.33
2018-05-12T07:26:41.320Z,45.05
2018-05-12T07:29:15.880Z,44.19
2018-05-12T07:31:50.485Z,44.02
2018-05-12T07:34:25.086Z,43.43
2018-05-12T07:37:00.346Z,43.57
2018-05-12T07:39:34.897Z,40.40
2018-05-12T07:42:09.529Z,41.01
2018-05-12T07:44:44.094Z,39.24
2018-05-12T07:47:18.525Z,39.62
2018-05-12T07:49:53.073Z,39.42
2018-05-12T07:52:27.670Z,38.34
2018-05-12T07:55:02.228Z,37.49
2018-05-12T07:57:36.863Z,37.41
2018-05-12T08:00:12.165Z,36.09
2018-05-12T08:02:46.816Z,36.60
2018-05-12T08:05:22.174Z,36.46
2018-05-12T08:07:56.831Z,35.18
2018-05-12T08:10:31.392Z,34.11
2018-05-12T08:13:06.791Z,34.03
2018-05-12T08:15:41.373Z,33.46
2018-05-12T08:18:16.013Z,30.94
2018-05-12T08:20:50.623Z,31.42
2018-05-12T08:23:25.189Z,31.00
2018-05-12T08:25:59.808Z,29.35
2018-05-12T08:28:34.422Z,28.31
2018-05-12T08:31:09.011Z,25.06
2018-05-12T08:33:44.421Z,25.88
2018-05-12T08:36:18.926Z,25.89
2018-05-12T08:38:53.518Z,26.68
2018-05-12T08:41:28.025Z,25.08
2018-05-12T08:44:02.724Z,25.23
2018-05-12T08:46:37.324Z,25.04
2018-05-12T08:49:11.931Z,25.46
2018-05-12T08:51:46.395Z,24.17
2018-05-12T08:54:20.919Z,24.87
2018-05-12T08:56:55.493Z,26.07
2018-05-12T08:59:30.219Z,26.23
2018-05-12T09:02:04.697Z,26.23
2018-05-12T09:04:40.088Z,26.42
2018-05-12T09:07:14.679Z,26.33
2018-05-12T09:09:49.054Z,24.01
2018-05-12T09:12:23.657Z,23.48
2018-05-12T09:14:58.239Z,23.84
2018-05-12T09:17:32.823Z,23.16
2018-05-12T09:20:08.181Z,23.47
2018-05-12T09:22:43.832Z,22.90
2018-05-12T09:25:18.474Z,22.32
2018-05-12T09:27:53.085Z,21.84
2018-05-12T09:30:27.685Z,22.57
2018-05-12T09:33:02.339Z,22.63
2018-05-12T09:35:36.838Z,23.11
2018-05-12T09:38:11.333Z,22.58
2018-05-12T09:40:45.827Z,22.71
2018-05-12T09:43:20.463Z,22.42
2018-05-12T09:45:55.061Z,22.50
2018-05-12T09:48:29.673Z,21.79
2018-05-12T09:51:05.010Z,22.15
2018-05-12T09:53:39.575Z,22.42
2018-05-12T09:56:14.145Z,22.93
2018-05-12T09:58:48.814Z,23.14
2018-05-12T10:01:23.449Z,23.05
2018-05-12T10:03:58.044Z,22.27
2018-05-12T10:06:32.522Z,22.72
2018-05-12T10:09:07.152Z,22.05
2018-05-12T10:11:42.345Z,22.17
2018-05-12T10:14:16.853Z,21.88
2018-05-12T10:16:51.286Z,21.24
2018-05-12T10:19:26.667Z,20.30
2018-05-12T10:22:01.257Z,20.47
2018-05-12T10:24:35.728Z,21.26
2018-05-12T10:27:11.073Z,21.79
2018-05-12T10:29:45.700Z,21.78
2018-05-12T10:32:20.369Z,21.84
2018-05-12T10:34:54.958Z,21.69
2018-05-12T10:37:29.521Z,21.71
2018-05-12T10:40:04.148Z,21.58
2018-05-12T10:42:38.542Z,21.21
2018-05-12T10:45:13.146Z,21.15
2018-05-12T10:47:47.747Z,21.14
2018-05-12T10:50:22.240Z,21.34
2018-05-12T10:52:56.845Z,20.71
2018-05-12T10:55:31.296Z,20.80
2018-05-12T10:58:05.961Z,20.30
2018-05-12T11:00:40.502Z,20.22
2018-05-12T11:03:15.135Z,20.70
2018-05-12T11:05:49.784Z,20.15
2018-05-12T11:08:24.965Z,20.37
2018-05-12T11:10:59.615Z,19.96
2018-05-12T11:13:34.930Z,20.06
2018-05-12T11:16:09.642Z,20.35
2018-05-12T11:18:44.206Z,19.42
2018-05-12T11:21:18.832Z,20.09
2018-05-12T11:23:53.403Z,19.33
2018-05-12T11:26:28.081Z,19.47
2018-05-12T11:29:02.559Z,19.02
2018-05-12T11:31:37.126Z,18.42
2018-05-12T11:34:11.787Z,19.22
2018-05-12T11:36:46.308Z,19.11
2018-05-12T11:39:20.838Z,19.04
2018-05-12T11:41:55.450Z,19.63
2018-05-12T11:44:29.891Z,18.98
2018-05-12T11:47:04.443Z,19.37
2018-05-12T11:49:39.078Z,19.56
2018-05-12T11:52:13.730Z,18.25
2018-05-12T11:54:48.246Z,17.84
2018-05-12T11:57:22.787Z,18.17
2018-05-12T11:59:57.406Z,17.68
2018-05-12T12:02:32.133Z,17.89
2018-05-12T12:05:06.585Z,18.16
2018-05-12T12:07:41.050Z,17.59
2018-05-12T12:10:16.503Z,17.84
2018-05-12T12:12:51.132Z,17.45
2018-05-12T12:15:25.831Z,16.94
2018-05-12T12:18:00.922Z,17.16
2018-05-12T12:20:36.205Z,17.96
2018-05-12T12:23:11.438Z,19.58
2018-05-12T12:25:46.163Z,19.87
2018-05-12T12:28:21.478Z,19.70
2018-05-12T12:30:56.073Z,19.29
2018-05-12T12:33:31.343Z,19.16
2018-05-12T12:36:05.856Z,18.97
2018-05-12T12:38:40.471Z,18.83
2018-05-12T12:41:15.760Z,19.15
2018-05-12T12:43:50.343Z,18.77
2018-05-12T12:46:24.959Z,18.23
2018-05-12T12:48:59.591Z,17.27
2018-05-12T12:51:34.127Z,16.86
2018-05-12T12:54:08.595Z,16.90
2018-05-12T12:56:43.211Z,16.93
2018-05-12T12:59:17.789Z,16.71
2018-05-12T13:01:52.450Z,16.44
2018-05-12T13:04:27.708Z,16.06
2018-05-12T13:07:02.172Z,17.08
2018-05-12T13:09:36.731Z,17.57
2018-05-12T13:12:11.163Z,18.27
2018-05-12T13:14:45.777Z,18.47
2018-05-12T13:17:20.254Z,18.58
2018-05-12T13:19:54.724Z,17.78
2018-05-12T13:22:29.357Z,17.12
2018-05-12T13:25:03.967Z,17.35
2018-05-12T13:27:38.396Z,17.00
2018-05-12T13:30:13.011Z,17.72
2018-05-12T13:32:48.377Z,17.66
2018-05-12T13:35:22.977Z,17.87
2018-05-12T13:37:58.349Z,18.36
2018-05-12T13:40:33.706Z,18.96
2018-05-12T13:43:08.308Z,19.03
2018-05-12T13:45:43.667Z,18.71
2018-05-12T13:48:18.179Z,18.58
2018-05-12T13:50:52.681Z,18.30
2018-05-12T13:53:27.255Z,18.44
2018-05-12T13:56:01.885Z,18.16
2018-05-12T13:58:36.286Z,18.36
2018-05-12T14:01:11.648Z,18.36
2018-05-12T14:03:46.977Z,17.62
2018-05-12T14:06:21.625Z,17.24
2018-05-12T14:08:56.211Z,17.56
2018-05-12T14:11:30.806Z,18.20
2018-05-12T14:14:05.383Z,18.70
2018-05-12T14:16:40.655Z,18.82
2018-05-12T14:19:15.234Z,18.18
2018-05-12T14:21:49.805Z,17.79
2018-05-12T14:24:25.109Z,17.87
2018-05-12T14:27:00.498Z,17.36
2018-05-12T14:29:35.074Z,17.56
2018-05-12T14:32:09.713Z,17.90
2018-05-12T14:34:44.286Z,17.50
2018-05-12T14:37:18.850Z,17.91
2018-05-12T14:39:53.418Z,18.17
2018-05-12T14:42:27.833Z,19.11
2018-05-12T14:45:02.354Z,19.34
2018-05-12T14:47:36.953Z,19.57
2018-05-12T14:50:11.709Z,19.83
2018-05-12T14:52:46.306Z,20.23
2018-05-12T14:55:20.929Z,20.92
2018-05-12T14:57:55.501Z,19.77
2018-05-12T15:00:30.049Z,20.01
2018-05-12T15:03:04.581Z,20.33
2018-05-12T15:05:39.045Z,20.70
2018-05-12T15:08:13.652Z,21.17
2018-05-12T15:10:48.298Z,21.47
2018-05-12T15:13:22.698Z,21.39
2018-05-12T15:15:57.283Z,21.32
2018-05-12T15:18:31.875Z,21.41
2018-05-12T15:21:06.570Z,21.77
2018-05-12T15:23:41.212Z,22.33
2018-05-12T15:26:16.379Z,22.42
2018-05-12T15:28:50.915Z,22.54
2018-05-12T15:31:25.611Z,22.72
2018-05-12T15:34:00.105Z,22.38
2018-05-12T15:36:34.654Z,22.63
2018-05-12T15:39:09.260Z,22.62
2018-05-12T15:41:43.872Z,22.76
2018-05-12T15:44:18.350Z,23.51
2018-05-12T15:46:52.957Z,23.60
2018-05-12T15:49:27.633Z,23.92
2018-05-12T15:52:02.084Z,24.61
2018-05-12T15:54:37.272Z,24.52
2018-05-12T15:57:11.917Z,24.73
2018-05-12T15:59:46.461Z,24.17
2018-05-12T16:02:21.665Z,24.32
2018-05-12T16:04:56.257Z,24.89
2018-05-12T16:07:30.972Z,24.98
2018-05-12T16:10:05.518Z,25.46
2018-05-12T16:12:40.303Z,25.64
2018-05-12T16:15:14.928Z,26.28
2018-05-12T16:17:50.367Z,26.34
2018-05-12T16:20:25.050Z,26.58
2018-05-12T16:22:59.587Z,26.79
2018-05-12T16:25:34.131Z,26.94
2018-05-12T16:28:08.665Z,27.04
2018-05-12T16:30:43.360Z,26.97
2018-05-12T16:33:17.845Z,26.89
2018-05-12T16:35:52.402Z,26.69
2018-05-12T16:38:26.881Z,26.93
2018-05-12T16:41:01.492Z,27.12
2018-05-12T16:43:36.210Z,27.43
2018-05-12T16:46:10.833Z,27.76
2018-05-12T16:48:45.480Z,27.72
2018-05-12T16:51:20.701Z,27.71
2018-05-12T16:53:55.386Z,28.49
2018-05-12T16:56:29.763Z,28.77
2018-05-12T16:59:04.396Z,28.83
2018-05-12T17:01:39.002Z,28.81
2018-05-12T17:04:13.615Z,29.00
2018-05-12T17:06:48.356Z,29.22
2018-05-12T17:09:23.690Z,29.40
2018-05-12T17:11:58.309Z,29.93
2018-05-12T17:14:32.898Z,29.83
2018-05-12T17:17:07.540Z,29.82
2018-05-12T17:19:41.977Z,30.29
2018-05-12T17:22:16.626Z,30.43
2018-05-12T17:24:51.173Z,30.55
2018-05-12T17:27:25.765Z,30.78
2018-05-12T17:30:00.424Z,30.93
2018-05-12T17:32:35.027Z,31.02
2018-05-12T17:35:09.679Z,31.08
2018-05-12T17:37:44.292Z,31.48
2018-05-12T17:40:19.041Z,31.68
2018-05-12T17:42:53.685Z,31.43
2018-05-12T17:45:28.991Z,31.62
2018-05-12T17:48:03.663Z,31.67
2018-05-12T17:50:38.195Z,31.75
2018-05-12T17:53:13.467Z,31.85
2018-05-12T17:55:48.131Z,32.08
2018-05-12T17:58:22.675Z,32.50
2018-05-12T18:00:57.206Z,32.79
2018-05-12T18:03:31.693Z,32.34
2018-05-12T18:06:06.433Z,32.21
2018-05-12T18:08:40.972Z,32.53
2018-05-12T18:11:15.545Z,33.09
2018-05-12T18:13:50.187Z,32.92
2018-05-12T18:16:24.630Z,33.19
2018-05-12T18:18:59.291Z,33.33
2018-05-12T18:21:33.869Z,33.76
2018-05-12T18:24:08.556Z,34.38
2018-05-12T18:26:43.267Z,34.68
2018-05-12T18:29:17.866Z,34.39
2018-05-12T18:31:52.538Z,34.53
2018-05-12T18:34:27.748Z,34.81
2018-05-12T18:37:02.209Z,35.02
2018-05-12T18:39:36.806Z,34.85
2018-05-12T18:42:11.291Z,35.06
2018-05-12T18:44:45.720Z,35.47
2018-05-12T18:47:20.286Z,35.65
2018-05-12T18:49:54.708Z,35.84
2018-05-12T18:52:30.125Z,36.02
2018-05-12T18:55:04.746Z,36.29
2018-05-12T18:57:40.106Z,36.56
2018-05-12T19:00:14.545Z,36.62
2018-05-12T19:02:49.194Z,36.73
2018-05-12T19:05:23.708Z,37.24
2018-05-12T19:07:58.322Z,37.01
2018-05-12T19:10:33.014Z,37.16
2018-05-12T19:13:07.661Z,37.49
2018-05-12T19:15:42.378Z,37.52
2018-05-12T19:18:17.691Z,37.75
2018-05-12T19:20:52.282Z,37.80
2018-05-12T19:23:27.588Z,38.14
2018-05-12T19:26:02.217Z,37.79
2018-05-12T19:28:36.735Z,38.18
2018-05-12T19:31:12.122Z,38.54
2018-05-12T19:33:46.627Z,38.81
2018-05-12T19:36:21.369Z,38.59
2018-05-12T19:38:55.986Z,38.58
2018-05-12T19:41:30.688Z,38.73
2018-05-12T19:44:05.362Z,38.82
2018-05-12T19:46:40.037Z,39.16
2018-05-12T19:49:14.557Z,39.43
2018-05-12T19:51:49.162Z,39.44
2018-05-12T19:54:23.756Z,39.95
2018-05-12T19:56:58.406Z,40.39
2018-05-12T19:59:33.018Z,40.26
2018-05-12T20:02:07.589Z,40.35
2018-05-12T20:04:42.234Z,40.55
2018-05-12T20:07:16.806Z,40.95
2018-05-12T20:09:51.434Z,40.85
2018-05-12T20:12:26.009Z,41.15
2018-05-12T20:15:00.469Z,41.35
2018-05-12T20:17:35.757Z,41.66
2018-05-12T20:20:10.415Z,41.82
2018-05-12T20:22:44.941Z,42.03
2018-05-12T20:25:19.510Z,42.23
2018-05-12T20:27:54.210Z,42.76
2018-05-12T20:30:28.738Z,42.56
2018-05-12T20:33:03.438Z,42.50
2018-05-12T20:35:37.993Z,42.61
2018-05-12T20:38:12.669Z,42.92
2018-05-12T20:40:47.187Z,43.06
2018-05-12T20:43:21.783Z,43.18
2018-05-12T20:45:56.206Z,43.47
2018-05-12T20:48:30.719Z,43.67
2018-05-12T20:51:05.266Z,44.04
2018-05-12T20:53:39.822Z,44.23
2018-05-12T20:56:14.342Z,44.47
2018-05-12T20:58:49.044Z,44.73
2018-05-12T21:01:23.665Z,44.79
2018-05-12T21:03:58.305Z,45.14
2018-05-12T21:06:32.863Z,45.38
2018-05-12T21:09:07.633Z,45.52
2018-05-12T21:11:43.069Z,46.17
2018-05-12T21:14:17.764Z,46.17
2018-05-12T21:16:52.293Z,46.32
2018-05-12T21:19:27.685Z,46.85
2018-05-12T21:22:02.291Z,46.39
2018-05-12T21:24:36.908Z,46.36
2018-05-12T21:27:11.438Z,46.72
2018-05-12T21:29:46.135Z,47.10
2018-05-12T21:32:20.603Z,47.17
2018-05-12T21:34:55.342Z,47.37
2018-05-12T21:37:29.956Z,47.63
2018-05-12T21:40:04.526Z,47.84
2018-05-12T21:42:39.234Z,48.09
2018-05-12T21:45:13.881Z,48.36
2018-05-12T21:47:48.448Z,48.67
2018-05-12T21:50:23.078Z,48.82
2018-05-12T21:52:57.529Z,48.74
2018-05-12T21:55:32.203Z,49.02
2018-05-12T21:58:06.777Z,49.14
2018-05-12T22:00:41.341Z,49.41
2018-05-12T22:03:15.994Z,49.38
2018-05-12T22:05:50.512Z,49.56
2018-05-12T22:08:25.118Z,49.76
2018-05-12T22:11:00.489Z,50.04
2018-05-12T22:13:35.104Z,49.84
2018-05-12T22:16:09.886Z,50.00
2018-05-12T22:18:44.573Z,49.86
2018-05-12T22:21:19.012Z,49.95
2018-05-12T22:23:53.709Z,50.13
2018-05-12T22:26:28.386Z,50.08
2018-05-12T22:29:02.995Z,50.10
2018-05-12T22:31:37.581Z,50.28
2018-05-12T22:34:12.725Z,49.79
2018-05-12T22:36:47.466Z,49.89
2018-05-12T22:39:22.106Z,50.31
2018-05-12T22:41:56.534Z,49.88
2018-05-12T22:44:31.091Z,49.58
2018-05-12T22:47:05.785Z,49.65
2018-05-12T22:49:40.460Z,49.14
2018-05-12T22:52:15.159Z,49.70
2018-05-12T22:54:50.512Z,49.68
2018-05-12T22:57:25.114Z,49.39
2018-05-12T23:00:00.331Z,49.67
2018-05-12T23:02:35.723Z,50.06
2018-05-12T23:05:10.250Z,50.84
2018-05-12T23:07:39.270Z,50.35
2018-05-12T23:10:08.743Z,50.76
2018-05-12T23:12:37.948Z,50.06
2018-05-12T23:15:08.045Z,49.21
2018-05-12T23:17:37.329Z,49.28
2018-05-12T23:20:07.394Z,49.14
2018-05-12T23:22:37.494Z,48.90
2018-05-12T23:25:06.785Z,48.89
2018-05-12T23:27:36.105Z,48.58
2018-05-12T23:30:05.436Z,48.51
2018-05-12T23:32:35.716Z,48.46
2018-05-12T23:35:05.028Z,48.29
2018-05-12T23:37:34.349Z,48.74
2018-05-12T23:40:03.642Z,48.39
2018-05-12T23:42:33.694Z,48.71
2018-05-12T23:45:03.009Z,48.23
2018-05-12T23:47:32.318Z,48.41
2018-05-12T23:50:01.637Z,48.65
2018-05-12T23:52:31.225Z,48.73
2018-05-12T23:55:00.544Z,49.16
2018-05-12T23:57:29.837Z,49.21
